createdAt,value
2019-02-06T00:01:33.837Z,-3.20
2019-02-06T00:04:02.337Z,-3.20
2019-02-06T00:06:31.015Z,-3.20
2019-02-06T00:08:59.518Z,-3.20
2019-02-06T00:11:27.960Z,-3.20
2019-02-06T00:13:56.823Z,-3.20
2019-02-06T00:16:25.311Z,-3.20
2019-02-06T00:18:54.704Z,-3.20
2019-02-06T00:21:23.433Z,-3.20
2019-02-06T00:23:51.870Z,-3.10
2019-02-06T00:26:20.279Z,-3.10
2019-02-06T00:28:48.715Z,-3.10
2019-02-06T00:31:17.123Z,-3.00
2019-02-06T00:33:45.542Z,-3.00
2019-02-06T00:36:13.959Z,-3.10
2019-02-06T00:38:42.726Z,-3.20
2019-02-06T00:41:11.621Z,-3.20
2019-02-06T00:43:40.042Z,-3.20
2019-02-06T00:46:08.503Z,-3.20
2019-02-06T00:48:36.923Z,-3.20
2019-02-06T00:51:05.350Z,-3.20
2019-02-06T00:53:33.767Z,-3.30
2019-02-06T00:56:02.875Z,-3.30
2019-02-06T00:58:31.299Z,-3.30
2019-02-06T01:01:00.194Z,-3.40
2019-02-06T01:03:28.674Z,-3.40
2019-02-06T01:05:57.102Z,-3.40
2019-02-06T01:08:25.518Z,-3.50
2019-02-06T01:10:53.946Z,-3.50
2019-02-06T01:13:23.146Z,-3.50
2019-02-06T01:15:51.581Z,-3.50
2019-02-06T01:18:19.994Z,-3.50
2019-02-06T01:20:48.423Z,-3.60
2019-02-06T01:23:16.868Z,-3.50
2019-02-06T01:25:45.295Z,-3.50
2019-02-06T01:28:13.715Z,-3.50
2019-02-06T01:30:44.156Z,-3.50
2019-02-06T01:33:12.570Z,-3.40
2019-02-06T01:35:49.633Z,-3.50
2019-02-06T01:38:11.132Z,-3.50
2019-02-06T01:40:39.552Z,-3.60
2019-02-06T01:43:07.985Z,-3.70
2019-02-06T01:45:37.080Z,-3.70
2019-02-06T01:48:05.499Z,-3.70
2019-02-06T01:50:33.935Z,-3.80
2019-02-06T01:53:02.345Z,-3.80
2019-02-06T01:55:30.775Z,-3.90
2019-02-06T01:57:59.380Z,-3.90
2019-02-06T02:00:27.925Z,-3.90
2019-02-06T02:02:56.717Z,-3.90
2019-02-06T02:05:25.147Z,-3.90
2019-02-06T02:07:53.579Z,-3.90
2019-02-06T02:10:22.173Z,-3.80
2019-02-06T02:12:50.854Z,-3.70
2019-02-06T02:15:20.713Z,-3.70
2019-02-06T02:17:49.291Z,-3.70
2019-02-06T02:20:20.254Z,-3.70
2019-02-06T02:22:49.042Z,-3.80
2019-02-06T02:25:17.606Z,-3.90
2019-02-06T02:27:46.190Z,-4.00
2019-02-06T02:30:25.511Z,-4.00
2019-02-06T02:32:53.989Z,-4.10
2019-02-06T02:35:22.416Z,-4.10
2019-02-06T02:37:50.826Z,-4.10
2019-02-06T02:40:19.249Z,-4.10
2019-02-06T02:42:47.831Z,-4.20
2019-02-06T02:45:17.899Z,-4.30
2019-02-06T02:47:47.157Z,-4.30
2019-02-06T02:50:15.941Z,-4.40
2019-02-06T02:52:44.535Z,-4.40
2019-02-06T02:55:14.392Z,-4.40
2019-02-06T02:57:43.172Z,-4.30
2019-02-06T03:00:26.535Z,-4.20
2019-02-06T03:02:59.261Z,-4.10
2019-02-06T03:05:29.445Z,-4.10
2019-02-06T03:07:57.875Z,-4.10
2019-02-06T03:10:26.300Z,-4.10
2019-02-06T03:12:54.764Z,-4.20
2019-02-06T03:15:23.557Z,-4.30
2019-02-06T03:17:51.979Z,-4.30
2019-02-06T03:20:20.849Z,-4.30
2019-02-06T03:22:49.257Z,-4.30
2019-02-06T03:25:17.691Z,-4.30
2019-02-06T03:27:46.545Z,-4.30
2019-02-06T03:30:17.563Z,-4.30
2019-02-06T03:32:46.191Z,-4.30
2019-02-06T03:35:14.804Z,-4.30
2019-02-06T03:37:43.544Z,-4.30
2019-02-06T03:40:19.008Z,-4.50
2019-02-06T03:42:48.069Z,-4.50
2019-02-06T03:45:16.961Z,-4.60
2019-02-06T03:47:45.382Z,-4.70
2019-02-06T03:50:16.803Z,-4.70
2019-02-06T03:52:45.238Z,-4.70
2019-02-06T03:55:14.257Z,-4.70
2019-02-06T03:57:42.673Z,-4.70
2019-02-06T04:00:18.616Z,-4.70
2019-02-06T04:02:47.310Z,-4.70
2019-02-06T04:05:15.960Z,-4.70
2019-02-06T04:07:44.478Z,-4.70
2019-02-06T04:10:15.485Z,-4.80
2019-02-06T04:12:43.908Z,-4.80
2019-02-06T04:15:13.548Z,-4.90
2019-02-06T04:17:42.041Z,-5.00
2019-02-06T04:20:15.412Z,-5.00
2019-02-06T04:22:43.854Z,-5.00
2019-02-06T04:25:15.997Z,-5.00
2019-02-06T04:27:44.421Z,-5.00
2019-02-06T04:30:18.510Z,-5.00
2019-02-06T04:32:47.198Z,-5.00
2019-02-06T04:35:16.446Z,-4.90
2019-02-06T04:37:44.871Z,-4.90
2019-02-06T04:40:18.487Z,-4.80
2019-02-06T04:42:47.537Z,-4.80
2019-02-06T04:45:18.358Z,-4.90
2019-02-06T04:47:47.191Z,-4.90
2019-02-06T04:50:17.611Z,-5.00
2019-02-06T04:52:46.762Z,-5.10
2019-02-06T04:55:18.861Z,-5.10
2019-02-06T04:57:47.855Z,-5.10
2019-02-06T05:00:25.234Z,-5.20
2019-02-06T05:02:53.721Z,-5.10
2019-02-06T05:05:23.069Z,-5.10
2019-02-06T05:07:51.488Z,-5.10
2019-02-06T05:10:19.913Z,-5.10
2019-02-06T05:12:49.251Z,-5.00
2019-02-06T05:15:18.501Z,-5.00
2019-02-06T05:17:47.235Z,-5.00
2019-02-06T05:20:22.269Z,-5.00
2019-02-06T05:22:50.772Z,-5.00
2019-02-06T05:25:19.234Z,-5.10
2019-02-06T05:27:48.021Z,-5.10
2019-02-06T05:30:16.629Z,-5.20
2019-02-06T05:32:45.052Z,-5.20
2019-02-06T05:35:13.641Z,-5.20
2019-02-06T05:37:42.070Z,-5.30
2019-02-06T05:40:11.529Z,-5.30
2019-02-06T05:42:40.973Z,-5.30
2019-02-06T05:45:13.794Z,-5.30
2019-02-06T05:47:42.518Z,-5.30
2019-02-06T05:50:16.423Z,-5.20
2019-02-06T05:52:44.898Z,-5.20
2019-02-06T05:55:15.328Z,-5.20
2019-02-06T05:57:44.119Z,-5.20
2019-02-06T06:00:19.006Z,-5.30
2019-02-06T06:02:47.423Z,-5.30
2019-02-06T06:05:15.852Z,-5.30
2019-02-06T06:07:45.621Z,-5.30
2019-02-06T06:10:18.835Z,-5.30
2019-02-06T06:12:47.782Z,-5.30
2019-02-06T06:15:18.446Z,-5.30
2019-02-06T06:17:46.859Z,-5.40
2019-02-06T06:20:19.987Z,-5.40
2019-02-06T06:22:49.319Z,-5.40
2019-02-06T06:25:20.200Z,-5.40
2019-02-06T06:27:49.082Z,-5.40
2019-02-06T06:30:21.871Z,-5.40
2019-02-06T06:32:50.292Z,-5.40
2019-02-06T06:35:18.987Z,-5.40
2019-02-06T06:37:57.842Z,-5.20
2019-02-06T06:40:22.417Z,-5.20
2019-02-06T06:42:51.674Z,-5.20
2019-02-06T06:45:24.952Z,-5.30
2019-02-06T06:47:53.444Z,-5.40
2019-02-06T06:50:26.113Z,-5.50
2019-02-06T06:52:54.533Z,-5.50
2019-02-06T06:55:35.115Z,-5.50
2019-02-06T06:58:02.933Z,-5.40
2019-02-06T07:00:32.406Z,-5.40
2019-02-06T07:03:00.897Z,-5.40
2019-02-06T07:05:29.565Z,-5.40
2019-02-06T07:08:09.337Z,-5.40
2019-02-06T07:10:29.120Z,-5.30
2019-02-06T07:12:57.685Z,-5.20
2019-02-06T07:15:31.594Z,-5.10
2019-02-06T07:18:00.649Z,-5.00
2019-02-06T07:20:29.238Z,-4.90
2019-02-06T07:22:58.227Z,-4.80
2019-02-06T07:25:26.927Z,-4.70
2019-02-06T07:27:55.430Z,-4.50
2019-02-06T07:30:34.515Z,-4.40
2019-02-06T07:33:03.365Z,-4.30
2019-02-06T07:35:31.781Z,-4.10
2019-02-06T07:38:00.469Z,-4.10
2019-02-06T07:40:29.363Z,-4.00
2019-02-06T07:42:57.763Z,-3.90
2019-02-06T07:45:26.186Z,-3.70
2019-02-06T07:47:54.664Z,-3.40
2019-02-06T07:50:34.149Z,-3.20
2019-02-06T07:53:02.617Z,-3.00
2019-02-06T07:55:31.145Z,-2.90
2019-02-06T07:57:59.553Z,-2.80
2019-02-06T08:00:27.977Z,-2.60
2019-02-06T08:02:58.227Z,-2.40
2019-02-06T08:05:27.188Z,-2.20
2019-02-06T08:07:56.617Z,-2.00
2019-02-06T08:10:30.393Z,-1.70
2019-02-06T08:12:59.258Z,-1.60
2019-02-06T08:15:28.150Z,-1.40
2019-02-06T08:17:56.553Z,-1.30
2019-02-06T08:20:25.530Z,-1.10
2019-02-06T08:22:55.460Z,-0.90
2019-02-06T08:25:25.520Z,-0.60
2019-02-06T08:27:53.989Z,-0.30
2019-02-06T08:30:27.866Z,-0.10
2019-02-06T08:32:56.340Z,0.10
2019-02-06T08:35:24.942Z,0.40
2019-02-06T08:37:54.194Z,0.60
2019-02-06T08:40:28.147Z,0.90
2019-02-06T08:42:56.555Z,1.10
2019-02-06T08:45:25.344Z,1.40
2019-02-06T08:47:54.541Z,1.60
2019-02-06T08:50:24.807Z,1.80
2019-02-06T08:52:53.472Z,2.00
2019-02-06T08:55:24.597Z,2.20
2019-02-06T08:57:53.554Z,2.00
2019-02-06T09:00:33.882Z,1.80
2019-02-06T09:03:03.237Z,1.60
2019-02-06T09:05:31.917Z,1.50
2019-02-06T09:08:00.619Z,1.40
2019-02-06T09:10:30.994Z,1.60
2019-02-06T09:13:00.968Z,1.80
2019-02-06T09:15:30.021Z,2.10
2019-02-06T09:17:58.860Z,2.30
2019-02-06T09:20:29.268Z,2.50
2019-02-06T09:22:58.225Z,2.70
2019-02-06T09:25:28.585Z,2.80
2019-02-06T09:27:57.737Z,2.80
2019-02-06T09:30:31.144Z,3.00
2019-02-06T09:33:00.599Z,3.00
2019-02-06T09:35:29.010Z,3.10
2019-02-06T09:37:57.414Z,3.20
2019-02-06T09:40:28.049Z,3.40
2019-02-06T09:42:56.458Z,3.70
2019-02-06T09:45:25.288Z,3.90
2019-02-06T09:47:53.772Z,4.10
2019-02-06T09:50:28.198Z,4.30
2019-02-06T09:52:56.676Z,4.40
2019-02-06T09:55:25.073Z,4.60
2019-02-06T09:57:53.494Z,4.80
2019-02-06T10:00:24.987Z,5.00
2019-02-06T10:02:53.481Z,5.10
2019-02-06T10:05:22.324Z,5.00
2019-02-06T10:07:50.810Z,4.90
2019-02-06T10:10:24.826Z,4.50
2019-02-06T10:12:53.580Z,4.20
2019-02-06T10:15:30.829Z,4.30
2019-02-06T10:18:01.358Z,4.30
2019-02-06T10:20:38.910Z,4.20
2019-02-06T10:23:08.361Z,4.10
2019-02-06T10:25:37.537Z,4.00
2019-02-06T10:28:06.070Z,4.10
2019-02-06T10:30:48.702Z,4.10
2019-02-06T10:33:18.981Z,4.00
2019-02-06T10:35:47.386Z,4.10
2019-02-06T10:38:21.261Z,4.30
2019-02-06T10:40:49.670Z,4.60
2019-02-06T10:43:30.903Z,5.00
2019-02-06T10:45:49.141Z,5.20
2019-02-06T10:48:17.637Z,5.50
2019-02-06T10:50:48.102Z,5.70
2019-02-06T10:53:17.088Z,5.80
2019-02-06T10:55:46.001Z,6.00
2019-02-06T10:58:14.756Z,6.10
2019-02-06T11:00:47.626Z,6.50
2019-02-06T11:03:16.328Z,7.00
2019-02-06T11:05:45.320Z,7.40
2019-02-06T11:08:14.014Z,7.80
2019-02-06T11:10:42.411Z,8.30
2019-02-06T11:13:13.168Z,8.50
2019-02-06T11:15:41.777Z,8.70
2019-02-06T11:18:10.297Z,8.90
2019-02-06T11:20:40.243Z,9.10
2019-02-06T11:23:08.889Z,9.30
2019-02-06T11:25:37.662Z,9.50
2019-02-06T11:28:07.908Z,9.70
2019-02-06T11:30:38.360Z,10.00
2019-02-06T11:33:13.673Z,9.90
2019-02-06T11:35:42.073Z,9.90
2019-02-06T11:38:10.477Z,9.80
2019-02-06T11:40:38.906Z,10.10
2019-02-06T11:43:07.938Z,10.70
2019-02-06T11:45:37.388Z,11.20
2019-02-06T11:48:06.825Z,11.40
2019-02-06T11:50:40.714Z,11.70
2019-02-06T11:53:11.970Z,11.90
2019-02-06T11:55:40.549Z,12.20
2019-02-06T11:58:09.567Z,12.10
2019-02-06T12:00:42.734Z,12.00
2019-02-06T12:03:11.255Z,12.00
2019-02-06T12:05:40.078Z,12.20
2019-02-06T12:08:08.504Z,12.40
2019-02-06T12:10:36.949Z,12.20
2019-02-06T12:13:06.237Z,11.70
2019-02-06T12:15:37.625Z,11.30
2019-02-06T12:18:10.982Z,10.70
2019-02-06T12:20:39.411Z,10.70
2019-02-06T12:23:07.863Z,11.10
2019-02-06T12:25:36.345Z,11.50
2019-02-06T12:28:05.838Z,11.90
2019-02-06T12:30:39.653Z,12.30
2019-02-06T12:33:08.156Z,12.60
2019-02-06T12:35:36.608Z,12.00
2019-02-06T12:38:06.415Z,11.40
2019-02-06T12:40:35.598Z,11.60
2019-02-06T12:43:10.144Z,11.90
2019-02-06T12:45:37.551Z,12.40
2019-02-06T12:48:06.946Z,12.90
2019-02-06T12:50:35.397Z,13.10
2019-02-06T12:53:04.404Z,13.40
2019-02-06T12:55:35.793Z,13.70
2019-02-06T12:58:06.414Z,13.90
2019-02-06T13:00:43.746Z,13.70
2019-02-06T13:03:12.194Z,13.60
2019-02-06T13:05:40.695Z,13.90
2019-02-06T13:08:09.387Z,14.10
2019-02-06T13:10:37.918Z,14.10
2019-02-06T13:13:06.631Z,14.10
2019-02-06T13:15:35.561Z,14.00
2019-02-06T13:18:05.129Z,13.20
2019-02-06T13:20:55.256Z,12.40
2019-02-06T13:23:37.979Z,11.70
2019-02-06T13:26:09.551Z,11.10
2019-02-06T13:28:38.555Z,11.30
2019-02-06T13:31:06.996Z,11.80
2019-02-06T13:33:35.451Z,12.30
2019-02-06T13:36:14.430Z,12.80
2019-02-06T13:38:44.210Z,13.20
2019-02-06T13:41:12.634Z,13.50
2019-02-06T13:43:41.047Z,13.60
2019-02-06T13:46:09.469Z,13.80
2019-02-06T13:48:37.889Z,14.00
2019-02-06T13:51:16.275Z,14.30
2019-02-06T13:53:36.872Z,14.50
2019-02-06T13:56:05.929Z,14.60
2019-02-06T13:58:34.342Z,14.70
2019-02-06T14:01:06.138Z,14.70
2019-02-06T14:03:34.917Z,14.60
2019-02-06T14:06:03.484Z,14.40
2019-02-06T14:08:31.974Z,14.30
2019-02-06T14:11:00.927Z,14.20
2019-02-06T14:13:29.797Z,14.10
2019-02-06T14:15:58.210Z,14.30
2019-02-06T14:18:26.686Z,14.50
2019-02-06T14:20:55.129Z,14.40
2019-02-06T14:23:33.118Z,14.30
2019-02-06T14:26:10.029Z,14.00
2019-02-06T14:28:45.106Z,13.70
2019-02-06T14:31:25.573Z,13.70
2019-02-06T14:34:14.532Z,14.20
2019-02-06T14:36:51.303Z,14.60
2019-02-06T14:39:25.681Z,15.10
2019-02-06T14:41:57.246Z,15.00
2019-02-06T14:44:31.406Z,15.30
2019-02-06T14:47:30.896Z,15.20
2019-02-06T14:50:20.221Z,15.30
2019-02-06T14:52:57.699Z,15.60
2019-02-06T14:55:52.133Z,15.50
2019-02-06T14:58:56.977Z,15.80
2019-02-06T15:01:31.824Z,16.40
2019-02-06T15:04:21.280Z,16.90
2019-02-06T15:07:16.286Z,17.30
2019-02-06T15:10:12.005Z,17.70
2019-02-06T15:13:01.321Z,18.00
2019-02-06T15:15:41.058Z,18.20
2019-02-06T15:18:39.193Z,18.40
2019-02-06T15:21:10.796Z,18.40
2019-02-06T15:23:50.996Z,18.50
2019-02-06T15:26:24.665Z,18.60
2019-02-06T15:29:12.582Z,18.60
2019-02-06T15:31:44.067Z,18.50
2019-02-06T15:34:33.613Z,18.00
2019-02-06T15:37:24.481Z,17.70
2019-02-06T15:40:32.018Z,17.80
2019-02-06T15:43:07.994Z,17.90
2019-02-06T15:45:44.961Z,17.50
2019-02-06T15:48:37.620Z,16.00
2019-02-06T15:51:33.292Z,14.60
2019-02-06T15:54:16.704Z,13.20
2019-02-06T15:56:57.129Z,11.80
2019-02-06T16:00:12.065Z,10.70
2019-02-06T16:02:49.537Z,10.00
2019-02-06T16:05:40.241Z,9.60
2019-02-06T16:08:20.725Z,9.20
2019-02-06T16:11:16.523Z,8.80
2019-02-06T16:13:48.322Z,8.50
2019-02-06T16:16:36.979Z,8.30
2019-02-06T16:19:22.865Z,8.10
2019-02-06T16:21:54.445Z,8.00
2019-02-06T16:24:46.563Z,7.90
2019-02-06T16:27:24.229Z,7.70
2019-02-06T16:30:13.850Z,7.50
2019-02-06T16:32:51.053Z,7.20
2019-02-06T16:35:22.854Z,6.70
2019-02-06T16:38:12.025Z,6.40
2019-02-06T16:40:52.323Z,6.20
2019-02-06T16:43:33.208Z,6.10
2019-02-06T16:46:13.832Z,5.90
2019-02-06T16:49:00.443Z,5.80
2019-02-06T16:51:31.990Z,5.50
2019-02-06T16:54:23.934Z,5.30
2019-02-06T16:56:58.249Z,5.10
2019-02-06T16:59:41.107Z,5.00
2019-02-06T17:02:39.674Z,4.90
2019-02-06T17:05:31.052Z,4.60
2019-02-06T17:08:11.326Z,4.50
2019-02-06T17:10:51.561Z,4.30
2019-02-06T17:13:31.661Z,4.20
2019-02-06T17:16:09.037Z,4.00
2019-02-06T17:18:46.489Z,3.90
2019-02-06T17:21:20.809Z,3.70
2019-02-06T17:23:55.442Z,3.40
2019-02-06T17:26:39.069Z,3.20
2019-02-06T17:29:39.672Z,2.90
2019-02-06T17:32:29.344Z,2.60
2019-02-06T17:35:09.607Z,2.30
2019-02-06T17:38:00.502Z,2.10
2019-02-06T17:40:32.297Z,2.00
2019-02-06T17:43:12.610Z,1.90
2019-02-06T17:45:44.132Z,1.80
2019-02-06T17:48:21.350Z,1.80
2019-02-06T17:50:59.166Z,1.80
2019-02-06T17:53:36.404Z,1.80
2019-02-06T17:56:05.781Z,1.70
2019-02-06T17:58:35.977Z,1.70
2019-02-06T18:01:07.524Z,1.70
2019-02-06T18:03:39.509Z,1.70
2019-02-06T18:06:08.513Z,1.60
2019-02-06T18:08:38.701Z,1.60
2019-02-06T18:11:07.162Z,1.60
2019-02-06T18:13:35.770Z,1.50
2019-02-06T18:16:04.961Z,1.40
2019-02-06T18:18:33.391Z,1.30
2019-02-06T18:21:01.842Z,1.30
2019-02-06T18:23:30.289Z,1.20
2019-02-06T18:25:58.798Z,1.10
2019-02-06T18:28:27.628Z,1.00
2019-02-06T18:30:56.119Z,1.00
2019-02-06T18:33:24.938Z,0.90
2019-02-06T18:35:53.462Z,0.90
2019-02-06T18:38:22.078Z,0.80
2019-02-06T18:40:50.537Z,0.80
2019-02-06T18:43:19.417Z,0.70
2019-02-06T18:45:48.094Z,0.60
2019-02-06T18:48:19.050Z,0.60
2019-02-06T18:50:47.834Z,0.50
2019-02-06T18:53:17.250Z,0.40
2019-02-06T18:55:45.854Z,0.40
2019-02-06T18:58:14.702Z,0.40
2019-02-06T19:00:45.504Z,0.30
2019-02-06T19:03:22.851Z,0.20
2019-02-06T19:05:51.366Z,0.20
2019-02-06T19:08:19.911Z,0.10
2019-02-06T19:10:48.781Z,0.00
2019-02-06T19:13:17.297Z,-0.10
2019-02-06T19:15:55.887Z,-0.10
2019-02-06T19:18:15.958Z,-0.20
2019-02-06T19:20:44.747Z,-0.20
2019-02-06T19:23:13.194Z,-0.20
2019-02-06T19:25:41.790Z,-0.30
2019-02-06T19:28:20.729Z,-0.30
2019-02-06T19:30:49.242Z,-0.30
2019-02-06T19:33:17.693Z,-0.40
2019-02-06T19:35:46.159Z,-0.40
2019-02-06T19:38:14.615Z,-0.50
2019-02-06T19:40:43.134Z,-0.50
2019-02-06T19:43:11.676Z,-0.60
2019-02-06T19:45:41.009Z,-0.70
2019-02-06T19:48:16.105Z,-0.70
2019-02-06T19:50:43.891Z,-0.70
2019-02-06T19:53:12.475Z,-0.80
2019-02-06T19:55:41.394Z,-0.70
2019-02-06T19:58:11.178Z,-0.70
2019-02-06T20:00:39.694Z,-0.80
2019-02-06T20:03:09.101Z,-0.70
2019-02-06T20:05:37.723Z,-0.80
2019-02-06T20:08:07.701Z,-0.80
2019-02-06T20:10:42.231Z,-0.90
2019-02-06T20:13:14.359Z,-0.90
2019-02-06T20:15:40.881Z,-0.90
2019-02-06T20:18:09.878Z,-0.90
2019-02-06T20:20:38.323Z,-1.00
2019-02-06T20:23:06.950Z,-1.10
2019-02-06T20:25:35.397Z,-1.10
2019-02-06T20:28:04.234Z,-1.00
2019-02-06T20:30:33.391Z,-0.90
2019-02-06T20:33:02.058Z,-0.90
2019-02-06T20:35:32.301Z,-0.90
2019-02-06T20:38:01.627Z,-0.90
2019-02-06T20:40:40.876Z,-0.90
2019-02-06T20:43:09.334Z,-0.90
2019-02-06T20:45:37.838Z,-0.90
2019-02-06T20:48:06.282Z,-0.90
2019-02-06T20:50:36.157Z,-1.00
2019-02-06T20:53:05.054Z,-1.00
2019-02-06T20:55:33.584Z,-1.10
2019-02-06T20:58:02.122Z,-1.20
2019-02-06T21:00:35.912Z,-1.30
2019-02-06T21:03:05.169Z,-1.40
2019-02-06T21:05:40.000Z,-1.40
2019-02-06T21:08:08.489Z,-1.40
2019-02-06T21:10:37.073Z,-1.50
2019-02-06T21:13:06.567Z,-1.60
2019-02-06T21:15:35.241Z,-1.60
2019-02-06T21:18:04.077Z,-1.70
2019-02-06T21:20:32.533Z,-1.70
2019-02-06T21:23:01.441Z,-1.80
2019-02-06T21:25:29.872Z,-1.80
2019-02-06T21:27:58.341Z,-1.70
2019-02-06T21:30:32.385Z,-1.60
2019-02-06T21:33:00.850Z,-1.70
2019-02-06T21:35:29.298Z,-1.70
2019-02-06T21:37:58.465Z,-1.70
2019-02-06T21:40:38.350Z,-1.90
2019-02-06T21:43:07.537Z,-2.00
2019-02-06T21:45:36.069Z,-2.00
2019-02-06T21:48:06.368Z,-2.10
2019-02-06T21:50:35.476Z,-2.10
2019-02-06T21:53:04.067Z,-2.10
2019-02-06T21:55:32.613Z,-2.20
2019-02-06T21:58:01.151Z,-2.20
2019-02-06T22:00:32.382Z,-2.20
2019-02-06T22:03:00.892Z,-2.20
2019-02-06T22:05:29.393Z,-2.30
2019-02-06T22:07:57.878Z,-2.30
2019-02-06T22:10:26.784Z,-2.40
2019-02-06T22:12:55.231Z,-2.30
2019-02-06T22:15:26.114Z,-2.30
2019-02-06T22:17:54.782Z,-2.40
2019-02-06T22:20:23.301Z,-2.40
2019-02-06T22:22:51.996Z,-2.40
2019-02-06T22:25:20.513Z,-2.30
2019-02-06T22:27:50.654Z,-2.30
2019-02-06T22:30:29.837Z,-2.20
2019-02-06T22:32:58.824Z,-2.20
2019-02-06T22:35:27.510Z,-2.20
2019-02-06T22:37:56.029Z,-2.20
2019-02-06T22:40:26.161Z,-2.20
2019-02-06T22:42:54.678Z,-2.20
2019-02-06T22:45:28.417Z,-2.30
2019-02-06T22:47:57.006Z,-2.30
2019-02-06T22:50:27.890Z,-2.40
2019-02-06T22:52:56.417Z,-2.40
2019-02-06T22:55:25.229Z,-2.40
2019-02-06T22:57:53.744Z,-2.40
2019-02-06T23:00:48.702Z,-2.40
2019-02-06T23:03:22.917Z,-2.50
2019-02-06T23:05:51.378Z,-2.60
2019-02-06T23:08:19.846Z,-2.70
2019-02-06T23:10:48.429Z,-2.70
2019-02-06T23:13:17.450Z,-2.70
2019-02-06T23:15:45.921Z,-2.70
2019-02-06T23:18:14.441Z,-2.70
2019-02-06T23:20:43.188Z,-2.80
2019-02-06T23:23:11.650Z,-2.90
2019-02-06T23:25:40.092Z,-2.90
2019-02-06T23:28:10.270Z,-2.90
2019-02-06T23:30:38.724Z,-2.90
2019-02-06T23:33:07.174Z,-3.00
2019-02-06T23:35:35.643Z,-3.00
2019-02-06T23:38:04.435Z,-3.00
2019-02-06T23:40:32.909Z,-3.00
2019-02-06T23:43:01.341Z,-2.90
2019-02-06T23:45:29.796Z,-2.90
2019-02-06T23:47:58.241Z,-2.80
2019-02-06T23:50:26.715Z,-2.70
2019-02-06T23:52:55.173Z,-2.70
2019-02-06T23:55:23.890Z,-2.70
2019-02-06T23:57:52.374Z,-2.80
